createdAt,value
2022-09-20T00:00:22.393Z,10.73
2022-09-20T00:01:22.837Z,11.63
2022-09-20T00:02:19.665Z,10.73
2022-09-20T00:03:17.582Z,11.63
2022-09-20T00:04:14.304Z,11.57
2022-09-20T00:05:11.149Z,11.81
2022-09-20T00:06:11.005Z,11.47
2022-09-20T00:07:07.693Z,11.54
2022-09-20T00:08:06.265Z,10.57
2022-09-20T00:09:04.475Z,11.08
2022-09-20T00:10:01.336Z,11.24
2022-09-20T00:11:01.622Z,11.38
2022-09-20T00:11:58.335Z,10.86
2022-09-20T00:12:55.010Z,11.36
2022-09-20T00:13:56.361Z,11.35
2022-09-20T00:14:53.202Z,11.40
2022-09-20T00:15:49.876Z,11.22
2022-09-20T00:16:46.633Z,11.23
2022-09-20T00:17:43.347Z,11.25
2022-09-20T00:18:41.071Z,11.48
2022-09-20T00:19:37.755Z,11.61
2022-09-20T00:20:34.435Z,11.28
2022-09-20T00:21:33.098Z,10.35
2022-09-20T00:22:29.786Z,11.31
2022-09-20T00:23:26.452Z,11.29
2022-09-20T00:24:23.171Z,11.29
2022-09-20T00:25:20.655Z,11.51
2022-09-20T00:26:17.608Z,11.55
2022-09-20T00:27:14.434Z,11.82
2022-09-20T00:28:11.497Z,11.68
2022-09-20T00:29:08.294Z,10.49
2022-09-20T00:30:05.492Z,10.79
2022-09-20T00:31:02.240Z,11.94
2022-09-20T00:31:58.996Z,12.06
2022-09-20T00:32:55.718Z,11.07
2022-09-20T00:34:14.939Z,11.11
2022-09-20T00:35:11.737Z,11.07
2022-09-20T00:36:08.541Z,12.16
2022-09-20T00:37:05.342Z,12.00
2022-09-20T00:38:02.097Z,11.85
2022-09-20T00:39:00.915Z,11.07
2022-09-20T00:39:57.674Z,11.76
2022-09-20T00:40:54.379Z,12.09
2022-09-20T00:41:51.037Z,12.20
2022-09-20T00:42:49.068Z,11.87
2022-09-20T00:43:47.202Z,11.88
2022-09-20T00:45:00.632Z,11.93
2022-09-20T00:45:57.831Z,11.58
2022-09-20T00:46:54.745Z,11.36
2022-09-20T00:48:27.412Z,10.64
2022-09-20T00:49:38.231Z,10.87
2022-09-20T00:51:00.063Z,11.00
2022-09-20T00:52:01.489Z,10.98
2022-09-20T00:53:01.919Z,10.91
2022-09-20T00:54:04.951Z,12.01
2022-09-20T00:55:07.692Z,11.81
2022-09-20T00:56:11.908Z,11.83
2022-09-20T00:57:08.654Z,11.80
2022-09-20T00:58:06.809Z,11.42
2022-09-20T00:59:18.417Z,11.66
2022-09-20T01:00:15.945Z,11.59
2022-09-20T01:01:14.327Z,10.82
2022-09-20T01:02:26.216Z,11.86
2022-09-20T01:03:27.997Z,11.49
2022-09-20T01:04:28.510Z,10.83
2022-09-20T01:05:26.814Z,11.92
2022-09-20T01:06:23.614Z,11.90
2022-09-20T01:07:22.799Z,11.79
2022-09-20T01:08:21.400Z,11.14
2022-09-20T01:09:18.095Z,11.41
2022-09-20T01:10:15.005Z,11.72
2022-09-20T01:11:12.552Z,11.60
2022-09-20T01:12:16.359Z,11.68
2022-09-20T01:13:13.249Z,11.28
2022-09-20T01:14:10.769Z,11.36
2022-09-20T01:15:10.537Z,11.19
2022-09-20T01:16:08.511Z,11.43
2022-09-20T01:17:08.091Z,11.36
2022-09-20T01:18:09.353Z,11.32
2022-09-20T01:19:40.961Z,10.38
2022-09-20T01:20:42.185Z,11.09
2022-09-20T01:21:39.452Z,11.29
2022-09-20T01:22:48.767Z,11.34
2022-09-20T01:24:00.316Z,11.55
2022-09-20T01:25:06.130Z,11.10
2022-09-20T01:26:22.702Z,11.64
2022-09-20T01:27:41.046Z,11.54
2022-09-20T01:28:42.314Z,10.90
2022-09-20T01:30:08.114Z,11.37
2022-09-20T01:31:17.670Z,10.52
2022-09-20T01:32:23.671Z,11.25
2022-09-20T01:33:49.693Z,11.15
2022-09-20T01:34:58.240Z,11.24
2022-09-20T01:36:01.073Z,11.56
2022-09-20T01:37:32.971Z,11.57
2022-09-20T01:39:06.077Z,11.66
2022-09-20T01:40:10.613Z,11.62
2022-09-20T01:41:21.974Z,10.77
2022-09-20T01:42:18.751Z,11.62
2022-09-20T01:43:32.900Z,11.32
2022-09-20T01:44:53.857Z,10.94
2022-09-20T01:45:50.740Z,10.75
2022-09-20T01:46:59.914Z,9.81
2022-09-20T01:47:56.555Z,10.60
2022-09-20T01:49:07.333Z,10.67
2022-09-20T01:50:48.329Z,10.62
2022-09-20T01:52:03.293Z,11.08
2022-09-20T01:53:23.757Z,10.64
2022-09-20T01:54:38.694Z,10.86
2022-09-20T01:55:37.950Z,10.95
2022-09-20T01:57:13.327Z,10.84
2022-09-20T01:58:12.965Z,10.91
2022-09-20T01:59:26.134Z,10.68
2022-09-20T02:00:38.948Z,11.01
2022-09-20T02:01:41.360Z,10.65
2022-09-20T02:03:15.612Z,11.11
2022-09-20T02:04:28.187Z,10.87
2022-09-20T02:05:24.773Z,11.28
2022-09-20T02:06:39.295Z,11.24
2022-09-20T02:07:42.117Z,11.15
2022-09-20T02:08:51.102Z,11.01
2022-09-20T02:10:06.329Z,11.07
2022-09-20T02:11:07.297Z,10.94
2022-09-20T02:12:19.544Z,10.90
2022-09-20T02:13:28.508Z,10.97
2022-09-20T02:14:25.141Z,11.27
2022-09-20T02:15:48.029Z,11.29
2022-09-20T02:17:20.006Z,10.50
2022-09-20T02:18:44.167Z,11.00
2022-09-20T02:19:43.467Z,11.13
2022-09-20T02:21:12.041Z,10.66
2022-09-20T02:22:34.137Z,10.70
2022-09-20T02:23:31.057Z,10.92
2022-09-20T02:24:46.506Z,10.76
2022-09-20T02:26:14.130Z,10.89
2022-09-20T02:27:50.291Z,11.09
2022-09-20T02:28:49.792Z,11.10
2022-09-20T02:30:05.037Z,10.93
2022-09-20T02:31:20.285Z,10.61
2022-09-20T02:32:47.821Z,10.29
2022-09-20T02:33:56.598Z,10.25
2022-09-20T02:35:08.319Z,10.57
2022-09-20T02:36:08.241Z,10.60
2022-09-20T02:37:39.646Z,10.46
2022-09-20T02:38:52.751Z,10.72
2022-09-20T02:40:08.826Z,10.56
2022-09-20T02:41:31.626Z,10.70
2022-09-20T02:42:33.721Z,10.52
2022-09-20T02:43:48.803Z,10.43
2022-09-20T02:45:07.174Z,10.16
2022-09-20T02:46:13.993Z,10.16
2022-09-20T02:47:28.607Z,10.38
2022-09-20T02:48:43.649Z,9.47
2022-09-20T02:49:55.231Z,10.04
2022-09-20T02:51:27.358Z,10.06
2022-09-20T02:52:32.274Z,10.00
2022-09-20T02:53:28.938Z,10.05
2022-09-20T02:54:44.850Z,9.81
2022-09-20T02:55:54.344Z,10.05
2022-09-20T02:57:07.981Z,10.40
2022-09-20T02:58:25.315Z,10.46
2022-09-20T02:59:40.554Z,9.98
2022-09-20T03:00:54.348Z,9.17
2022-09-20T03:02:14.530Z,10.08
2022-09-20T03:03:31.851Z,10.51
2022-09-20T03:04:43.622Z,10.34
2022-09-20T03:06:15.574Z,10.34
2022-09-20T03:07:51.693Z,9.30
2022-09-20T03:09:19.144Z,10.18
2022-09-20T03:10:47.689Z,10.02
2022-09-20T03:12:02.648Z,10.38
2022-09-20T03:13:29.825Z,10.55
2022-09-20T03:14:36.586Z,10.33
2022-09-20T03:16:03.066Z,10.48
2022-09-20T03:17:36.460Z,10.14
2022-09-20T03:19:03.919Z,10.58
2022-09-20T03:20:12.799Z,10.15
2022-09-20T03:21:24.109Z,9.64
2022-09-20T03:23:02.416Z,10.18
2022-09-20T03:24:36.468Z,10.10
2022-09-20T03:25:33.118Z,10.48
2022-09-20T03:27:03.794Z,10.57
2022-09-20T03:28:30.959Z,9.88
2022-09-20T03:29:36.555Z,9.98
2022-09-20T03:30:41.521Z,9.72
2022-09-20T03:31:50.771Z,9.62
2022-09-20T03:33:02.294Z,9.62
2022-09-20T03:34:14.065Z,9.69
2022-09-20T03:35:16.751Z,9.65
2022-09-20T03:36:38.160Z,9.67
2022-09-20T03:37:56.344Z,9.93
2022-09-20T03:39:02.658Z,9.81
2022-09-20T03:40:26.759Z,9.84
2022-09-20T03:41:41.403Z,9.84
2022-09-20T03:42:48.192Z,10.07
2022-09-20T03:44:00.784Z,9.88
2022-09-20T03:45:16.288Z,10.07
2022-09-20T03:46:26.975Z,9.47
2022-09-20T03:47:52.766Z,9.92
2022-09-20T03:49:35.862Z,9.92
2022-09-20T03:50:54.238Z,10.20
2022-09-20T03:52:23.498Z,9.91
2022-09-20T03:53:45.737Z,9.98
2022-09-20T03:55:10.034Z,10.01
2022-09-20T03:56:31.031Z,9.80
2022-09-20T03:57:35.646Z,9.78
2022-09-20T03:59:03.342Z,10.01
2022-09-20T04:00:16.665Z,9.87
2022-09-20T04:01:35.383Z,9.82
2022-09-20T04:03:00.549Z,9.89
2022-09-20T04:04:22.114Z,9.81
2022-09-20T04:05:29.274Z,8.83
2022-09-20T04:06:56.446Z,9.87
2022-09-20T04:08:18.023Z,9.77
2022-09-20T04:09:43.960Z,9.58
2022-09-20T04:10:54.702Z,9.80
2022-09-20T04:11:51.824Z,9.85
2022-09-20T04:13:07.402Z,9.98
2022-09-20T04:14:23.193Z,8.78
2022-09-20T04:15:35.531Z,9.83
2022-09-20T04:16:32.217Z,9.54
2022-09-20T04:17:49.162Z,9.56
2022-09-20T04:18:57.837Z,9.84
2022-09-20T04:20:07.075Z,9.63
2022-09-20T04:21:28.986Z,9.74
2022-09-20T04:22:30.085Z,8.91
2022-09-20T04:23:44.734Z,10.15
2022-09-20T04:25:04.701Z,9.97
2022-09-20T04:26:03.294Z,9.72
2022-09-20T04:27:23.020Z,9.59
2022-09-20T04:28:33.769Z,9.35
2022-09-20T04:29:44.753Z,9.43
2022-09-20T04:30:44.725Z,9.58
2022-09-20T04:31:56.430Z,9.44
2022-09-20T04:33:03.668Z,9.87
2022-09-20T04:34:04.929Z,9.90
2022-09-20T04:35:42.686Z,9.91
2022-09-20T04:37:05.020Z,9.36
2022-09-20T04:38:07.976Z,10.54
2022-09-20T04:39:34.478Z,10.20
2022-09-20T04:40:33.932Z,10.09
2022-09-20T04:41:37.840Z,10.42
2022-09-20T04:42:52.533Z,10.65
2022-09-20T04:44:27.951Z,10.48
2022-09-20T04:46:09.745Z,10.05
2022-09-20T04:47:51.337Z,10.53
2022-09-20T04:49:05.992Z,10.25
2022-09-20T04:50:21.353Z,10.45
2022-09-20T04:51:39.801Z,10.24
2022-09-20T04:52:55.233Z,10.39
2022-09-20T04:53:52.326Z,10.73
2022-09-20T04:55:10.281Z,10.27
2022-09-20T04:56:28.513Z,7.84
2022-09-20T04:58:05.007Z,10.21
2022-09-20T04:59:10.327Z,9.77
2022-09-20T05:00:12.313Z,10.80
2022-09-20T05:01:16.678Z,10.92
2022-09-20T05:02:44.928Z,11.00
2022-09-20T05:04:08.772Z,10.83
2022-09-20T05:05:26.908Z,10.66
2022-09-20T05:06:52.505Z,10.01
2022-09-20T05:07:58.394Z,10.41
2022-09-20T05:09:15.241Z,10.37
2022-09-20T05:10:33.474Z,10.78
2022-09-20T05:11:48.564Z,10.76
2022-09-20T05:13:20.253Z,10.94
2022-09-20T05:14:38.727Z,10.14
2022-09-20T05:16:08.491Z,10.52
2022-09-20T05:17:32.864Z,10.53
2022-09-20T05:18:35.703Z,10.40
2022-09-20T05:20:03.155Z,9.04
2022-09-20T05:21:03.565Z,10.48
2022-09-20T05:22:37.484Z,10.72
2022-09-20T05:23:49.134Z,10.90
2022-09-20T05:25:01.019Z,10.74
2022-09-20T05:26:27.665Z,11.13
2022-09-20T05:27:45.507Z,11.21
2022-09-20T05:29:10.169Z,11.00
2022-09-20T05:30:19.401Z,11.34
2022-09-20T05:31:38.182Z,10.99
2022-09-20T05:32:34.889Z,11.25
2022-09-20T05:33:53.044Z,11.38
2022-09-20T05:35:02.067Z,11.16
2022-09-20T05:36:08.709Z,11.56
2022-09-20T05:37:24.122Z,11.14
2022-09-20T05:38:45.618Z,11.21
2022-09-20T05:39:54.511Z,10.22
2022-09-20T05:41:07.554Z,11.29
2022-09-20T05:42:18.698Z,11.12
2022-09-20T05:43:53.530Z,11.26
2022-09-20T05:45:13.529Z,11.50
2022-09-20T05:46:34.317Z,11.32
2022-09-20T05:47:49.581Z,11.30
2022-09-20T05:48:59.161Z,11.07
2022-09-20T05:50:19.973Z,11.44
2022-09-20T05:51:33.915Z,11.31
2022-09-20T05:52:45.612Z,11.39
2022-09-20T05:53:51.407Z,11.51
2022-09-20T05:55:19.647Z,11.33
2022-09-20T05:56:27.623Z,10.60
2022-09-20T05:57:49.338Z,11.39
2022-09-20T05:59:27.144Z,11.59
2022-09-20T06:00:35.545Z,11.65
2022-09-20T06:01:58.195Z,12.02
2022-09-20T06:03:18.212Z,11.09
2022-09-20T06:04:28.593Z,10.78
2022-09-20T06:05:47.152Z,11.73
2022-09-20T06:06:51.004Z,11.53
2022-09-20T06:08:12.625Z,11.55
2022-09-20T06:09:09.214Z,11.54
2022-09-20T06:10:41.580Z,11.29
2022-09-20T06:12:02.808Z,11.87
2022-09-20T06:13:24.753Z,12.01
2022-09-20T06:14:36.730Z,11.99
2022-09-20T06:15:56.286Z,11.68
2022-09-20T06:16:55.970Z,11.82
2022-09-20T06:18:04.784Z,11.88
2022-09-20T06:19:15.220Z,12.14
2022-09-20T06:20:11.968Z,12.14
2022-09-20T06:21:40.346Z,11.59
2022-09-20T06:22:46.037Z,12.27
2022-09-20T06:23:44.107Z,12.16
2022-09-20T06:24:48.751Z,12.35
2022-09-20T06:25:57.295Z,11.28
2022-09-20T06:26:58.638Z,12.48
2022-09-20T06:28:17.286Z,12.01
2022-09-20T06:29:19.997Z,10.78
2022-09-20T06:30:50.089Z,11.68
2022-09-20T06:31:46.795Z,11.87
2022-09-20T06:33:21.533Z,11.90
2022-09-20T06:34:18.269Z,11.88
2022-09-20T06:35:15.094Z,12.13
2022-09-20T06:36:35.891Z,11.89
2022-09-20T06:38:01.284Z,12.06
2022-09-20T06:39:38.327Z,12.16
2022-09-20T06:41:08.390Z,11.98
2022-09-20T06:42:27.017Z,11.93
2022-09-20T06:43:43.073Z,12.22
2022-09-20T06:44:41.327Z,12.16
2022-09-20T06:45:38.068Z,12.09
2022-09-20T06:46:36.213Z,12.39
2022-09-20T06:47:35.731Z,12.57
2022-09-20T06:48:40.072Z,11.94
2022-09-20T06:49:36.895Z,12.68
2022-09-20T06:50:36.211Z,12.76
2022-09-20T06:51:38.656Z,12.48
2022-09-20T06:52:35.709Z,12.44
2022-09-20T06:53:37.227Z,12.51
2022-09-20T06:54:34.506Z,12.70
2022-09-20T06:55:40.898Z,11.99
2022-09-20T06:56:37.891Z,12.64
2022-09-20T06:57:40.280Z,11.69
2022-09-20T06:58:36.961Z,12.26
2022-09-20T06:59:33.663Z,12.56
2022-09-20T07:00:30.560Z,12.42
2022-09-20T07:01:30.434Z,12.32
2022-09-20T07:02:27.471Z,12.72
2022-09-20T07:03:24.157Z,12.84
2022-09-20T07:04:23.420Z,12.83
2022-09-20T07:05:26.544Z,12.73
2022-09-20T07:06:23.241Z,12.56
2022-09-20T07:07:19.973Z,12.50
2022-09-20T07:08:17.214Z,12.46
2022-09-20T07:09:14.069Z,12.87
2022-09-20T07:10:15.440Z,13.07
2022-09-20T07:11:16.317Z,13.26
2022-09-20T07:12:13.270Z,12.31
2022-09-20T07:13:13.740Z,13.32
2022-09-20T07:14:10.835Z,12.75
2022-09-20T07:15:08.894Z,12.15
2022-09-20T07:16:08.722Z,13.14
2022-09-20T07:17:06.565Z,13.11
2022-09-20T07:18:03.266Z,12.97
2022-09-20T07:19:00.500Z,13.06
2022-09-20T07:19:57.204Z,13.13
2022-09-20T07:20:54.272Z,12.96
2022-09-20T07:21:50.981Z,13.42
2022-09-20T07:22:49.172Z,13.15
2022-09-20T07:23:46.317Z,13.65
2022-09-20T07:24:44.911Z,13.64
2022-09-20T07:25:41.621Z,13.34
2022-09-20T07:26:39.088Z,13.70
2022-09-20T07:27:36.136Z,13.34
2022-09-20T07:28:35.211Z,12.81
2022-09-20T07:29:32.279Z,13.39
2022-09-20T07:30:28.991Z,13.84
2022-09-20T07:31:28.971Z,13.20
2022-09-20T07:32:26.950Z,13.73
2022-09-20T07:33:25.082Z,12.81
2022-09-20T07:34:21.847Z,13.11
2022-09-20T07:35:18.827Z,13.57
2022-09-20T07:36:16.615Z,13.68
2022-09-20T07:37:14.004Z,13.91
2022-09-20T07:38:10.753Z,13.86
2022-09-20T07:39:07.466Z,13.48
2022-09-20T07:40:05.499Z,13.25
2022-09-20T07:41:02.969Z,13.46
2022-09-20T07:41:59.710Z,13.15
2022-09-20T07:42:57.778Z,12.07
2022-09-20T07:43:54.514Z,13.37
2022-09-20T07:44:54.003Z,13.36
2022-09-20T07:45:56.048Z,13.31
2022-09-20T07:46:55.299Z,13.70
2022-09-20T07:47:54.436Z,13.77
2022-09-20T07:48:51.420Z,13.66
2022-09-20T07:49:48.081Z,13.73
2022-09-20T07:50:51.224Z,13.65
2022-09-20T07:51:48.759Z,13.66
2022-09-20T07:52:45.734Z,13.35
2022-09-20T07:53:42.482Z,13.89
2022-09-20T07:54:39.930Z,14.03
2022-09-20T07:55:37.074Z,13.66
2022-09-20T07:56:33.856Z,14.01
2022-09-20T07:57:35.010Z,13.93
2022-09-20T07:58:35.083Z,13.83
2022-09-20T07:59:31.895Z,13.79
2022-09-20T08:00:28.691Z,13.41
2022-09-20T08:01:44.093Z,13.69
2022-09-20T08:03:00.391Z,13.80
2022-09-20T08:04:15.594Z,13.68
2022-09-20T08:05:12.762Z,13.48
2022-09-20T08:06:11.932Z,13.94
2022-09-20T08:07:08.930Z,14.12
2022-09-20T08:08:05.671Z,13.78
2022-09-20T08:09:02.382Z,13.93
2022-09-20T08:09:59.740Z,14.52
2022-09-20T08:11:03.254Z,14.32
2022-09-20T08:14:05.173Z,14.44
2022-09-20T08:14:33.889Z,14.74
2022-09-20T08:15:31.047Z,13.83
2022-09-20T08:16:29.588Z,14.87
2022-09-20T08:17:26.357Z,14.98
2022-09-20T08:18:25.302Z,14.84
2022-09-20T08:19:23.228Z,14.49
2022-09-20T08:20:20.283Z,14.09
2022-09-20T08:21:17.716Z,14.70
2022-09-20T08:22:14.478Z,13.76
2022-09-20T08:23:23.355Z,14.67
2022-09-20T08:24:21.591Z,14.39
2022-09-20T08:25:18.352Z,14.62
2022-09-20T08:26:18.434Z,14.71
2022-09-20T08:27:15.169Z,14.64
2022-09-20T08:28:11.932Z,13.65
2022-09-20T08:29:08.724Z,14.20
2022-09-20T08:30:06.441Z,15.19
2022-09-20T08:31:05.881Z,15.29
2022-09-20T08:32:03.280Z,15.84
2022-09-20T08:33:00.079Z,15.74
2022-09-20T08:33:57.004Z,15.86
2022-09-20T08:34:53.778Z,15.37
2022-09-20T08:35:50.445Z,15.98
2022-09-20T08:36:47.261Z,15.90
2022-09-20T08:37:45.544Z,14.83
2022-09-20T08:39:59.548Z,15.31
2022-09-20T08:41:17.653Z,14.81
2022-09-20T08:42:42.073Z,15.80
2022-09-20T08:43:50.324Z,15.67
2022-09-20T08:44:58.541Z,15.82
2022-09-20T08:46:05.543Z,14.61
2022-09-20T08:47:22.084Z,14.74
2022-09-20T08:48:35.295Z,14.83
2022-09-20T08:49:33.499Z,14.13
2022-09-20T08:50:30.211Z,14.82
2022-09-20T08:51:33.152Z,14.84
2022-09-20T08:52:40.823Z,15.04
2022-09-20T08:53:49.129Z,14.55
2022-09-20T08:54:46.899Z,14.58
2022-09-20T08:55:44.122Z,13.47
2022-09-20T08:56:40.831Z,14.21
2022-09-20T08:57:37.554Z,13.91
2022-09-20T08:58:34.257Z,13.71
2022-09-20T08:59:32.658Z,14.72
2022-09-20T09:00:33.327Z,15.19
2022-09-20T09:01:32.445Z,15.61
2022-09-20T09:02:31.804Z,15.81
2022-09-20T09:03:28.505Z,15.10
2022-09-20T09:04:36.414Z,15.83
2022-09-20T09:05:36.834Z,15.78
2022-09-20T09:06:33.931Z,15.47
2022-09-20T09:07:30.768Z,14.28
2022-09-20T09:08:38.034Z,14.83
2022-09-20T09:09:42.058Z,14.89
2022-09-20T09:10:43.572Z,15.10
2022-09-20T09:11:45.725Z,15.10
2022-09-20T09:12:48.664Z,15.19
2022-09-20T09:14:04.576Z,15.34
2022-09-20T09:15:26.461Z,15.51
2022-09-20T09:16:34.491Z,15.71
2022-09-20T09:17:31.919Z,15.95
2022-09-20T09:18:39.689Z,15.42
2022-09-20T09:19:53.943Z,15.35
2022-09-20T09:20:51.258Z,15.90
2022-09-20T09:21:47.983Z,16.00
2022-09-20T09:22:46.250Z,15.79
2022-09-20T09:23:50.702Z,15.48
2022-09-20T09:25:26.807Z,16.21
2022-09-20T09:26:25.028Z,15.29
2022-09-20T09:27:21.742Z,16.43
2022-09-20T09:28:23.935Z,16.15
2022-09-20T09:29:23.389Z,15.71
2022-09-20T09:30:27.347Z,14.97
2022-09-20T09:31:26.163Z,15.13
2022-09-20T09:32:29.560Z,15.50
2022-09-20T09:33:29.939Z,15.77
2022-09-20T09:34:31.054Z,15.82
2022-09-20T09:35:31.841Z,15.22
2022-09-20T09:36:28.601Z,15.56
2022-09-20T09:37:31.142Z,15.50
2022-09-20T09:38:38.113Z,15.52
2022-09-20T09:39:38.073Z,15.40
2022-09-20T09:40:34.941Z,15.76
2022-09-20T09:41:35.334Z,15.80
2022-09-20T09:42:33.130Z,16.13
2022-09-20T09:43:35.430Z,16.08
2022-09-20T09:44:34.010Z,16.56
2022-09-20T09:45:39.468Z,16.56
2022-09-20T09:46:40.000Z,16.94
2022-09-20T09:47:37.619Z,16.52
2022-09-20T09:48:36.977Z,17.07
2022-09-20T09:49:36.404Z,17.27
2022-09-20T09:50:34.799Z,16.95
2022-09-20T09:51:32.419Z,16.31
2022-09-20T09:52:33.274Z,16.08
2022-09-20T09:53:29.986Z,16.13
2022-09-20T09:54:37.267Z,16.13
2022-09-20T09:55:43.800Z,15.15
2022-09-20T09:57:02.553Z,15.84
2022-09-20T09:58:13.145Z,15.81
2022-09-20T09:59:42.252Z,15.52
2022-09-20T10:00:46.493Z,15.32
2022-09-20T10:01:55.696Z,15.55
2022-09-20T10:03:04.355Z,15.79
2022-09-20T10:04:36.237Z,15.61
2022-09-20T10:05:48.282Z,15.00
2022-09-20T10:07:10.739Z,15.17
2022-09-20T10:08:35.511Z,15.93
2022-09-20T10:09:47.197Z,15.79
2022-09-20T10:11:09.079Z,15.78
2022-09-20T10:12:29.601Z,15.22
2022-09-20T10:13:44.461Z,15.96
2022-09-20T10:14:59.696Z,15.96
2022-09-20T10:15:59.204Z,16.09
2022-09-20T10:17:17.821Z,15.93
2022-09-20T10:18:22.554Z,15.05
2022-09-20T10:20:03.523Z,16.67
2022-09-20T10:21:31.134Z,16.18
2022-09-20T10:23:00.313Z,16.31
2022-09-20T10:24:30.841Z,16.36
2022-09-20T10:25:48.565Z,16.66
2022-09-20T10:26:45.228Z,16.07
2022-09-20T10:28:48.403Z,16.79
2022-09-20T10:30:00.418Z,16.69
2022-09-20T10:31:45.982Z,15.77
2022-09-20T10:33:01.054Z,16.03
2022-09-20T10:34:46.927Z,15.87
2022-09-20T10:36:05.169Z,16.15
2022-09-20T10:37:02.491Z,16.43
2022-09-20T10:38:08.360Z,16.83
2022-09-20T10:39:17.353Z,16.49
2022-09-20T10:40:51.510Z,16.42
2022-09-20T10:42:43.760Z,16.05
2022-09-20T10:43:43.238Z,16.23
2022-09-20T10:44:58.602Z,16.49
2022-09-20T10:46:30.666Z,15.84
2022-09-20T10:47:46.810Z,16.83
2022-09-20T10:48:53.005Z,15.95
2022-09-20T10:49:52.660Z,16.72
2022-09-20T10:51:02.578Z,15.78
2022-09-20T10:52:05.698Z,15.85
2022-09-20T10:53:39.888Z,15.82
2022-09-20T10:54:49.159Z,14.58
2022-09-20T10:56:24.582Z,15.87
2022-09-20T10:57:52.392Z,15.70
2022-09-20T10:59:03.467Z,15.98
2022-09-20T11:00:22.242Z,16.01
2022-09-20T11:01:34.655Z,16.02
2022-09-20T11:02:43.185Z,16.21
2022-09-20T11:04:00.790Z,16.19
2022-09-20T11:05:03.273Z,16.03
2022-09-20T11:06:23.670Z,16.01
2022-09-20T11:07:42.902Z,15.83
2022-09-20T11:08:44.734Z,15.13
2022-09-20T11:09:52.178Z,16.10
2022-09-20T11:10:57.690Z,15.68
2022-09-20T11:12:10.841Z,15.99
2022-09-20T11:13:27.735Z,16.35
2022-09-20T11:14:42.276Z,15.73
2022-09-20T11:16:08.811Z,16.03
2022-09-20T11:17:26.831Z,16.08
2022-09-20T11:18:26.090Z,16.17
2022-09-20T11:19:33.143Z,16.14
2022-09-20T11:20:50.790Z,15.60
2022-09-20T11:22:02.494Z,16.01
2022-09-20T11:23:26.329Z,16.02
2022-09-20T11:25:03.738Z,15.85
2022-09-20T11:26:11.615Z,16.46
2022-09-20T11:27:32.779Z,16.33
2022-09-20T11:28:52.260Z,15.70
2022-09-20T11:30:15.310Z,15.66
2022-09-20T11:31:24.478Z,16.40
2022-09-20T11:32:30.884Z,16.02
2022-09-20T11:33:30.786Z,15.39
2022-09-20T11:34:34.441Z,16.11
2022-09-20T11:35:38.704Z,16.13
2022-09-20T11:36:52.265Z,15.41
2022-09-20T11:38:11.184Z,15.91
2022-09-20T11:39:23.127Z,15.94
2022-09-20T11:40:29.835Z,15.79
2022-09-20T11:41:29.411Z,15.82
2022-09-20T11:42:32.997Z,16.11
2022-09-20T11:43:31.747Z,16.07
2022-09-20T11:44:29.121Z,16.15
2022-09-20T11:45:28.977Z,16.29
2022-09-20T11:46:55.063Z,16.58
2022-09-20T11:48:02.686Z,16.51
2022-09-20T11:49:09.280Z,16.51
2022-09-20T11:50:38.420Z,16.75
2022-09-20T11:51:53.524Z,16.42
2022-09-20T11:53:08.689Z,16.31
2022-09-20T11:54:27.809Z,16.14
2022-09-20T11:55:48.372Z,15.95
2022-09-20T11:56:56.550Z,15.37
2022-09-20T11:58:08.157Z,15.66
2022-09-20T11:59:24.933Z,15.16
2022-09-20T12:00:32.388Z,15.74
2022-09-20T12:01:39.793Z,16.16
2022-09-20T12:02:54.447Z,16.30
2022-09-20T12:04:14.173Z,16.59
2022-09-20T12:05:33.906Z,16.31
2022-09-20T12:06:35.980Z,15.55
2022-09-20T12:07:41.251Z,16.67
2022-09-20T12:08:41.944Z,16.81
2022-09-20T12:09:43.730Z,15.50
2022-09-20T12:10:40.947Z,15.60
2022-09-20T12:11:41.273Z,16.45
2022-09-20T12:12:44.089Z,16.12
2022-09-20T12:14:00.873Z,16.25
2022-09-20T12:15:00.719Z,16.39
2022-09-20T12:16:34.941Z,16.88
2022-09-20T12:17:50.053Z,16.66
2022-09-20T12:19:02.956Z,15.69
2022-09-20T12:19:59.694Z,16.33
2022-09-20T12:20:56.317Z,16.64
2022-09-20T12:21:59.075Z,16.92
2022-09-20T12:23:34.424Z,16.88
2022-09-20T12:24:34.498Z,17.03
2022-09-20T12:25:37.133Z,17.12
2022-09-20T12:26:41.542Z,16.92
2022-09-20T12:27:38.292Z,16.77
2022-09-20T12:28:37.753Z,16.78
2022-09-20T12:29:34.377Z,16.85
2022-09-20T12:30:32.218Z,16.89
2022-09-20T12:31:32.420Z,16.65
2022-09-20T12:32:43.529Z,16.69
2022-09-20T12:34:03.202Z,16.44
2022-09-20T12:34:59.984Z,16.19
2022-09-20T12:36:15.733Z,16.61
2022-09-20T12:37:12.464Z,16.42
2022-09-20T12:38:21.248Z,16.38
2022-09-20T12:39:27.590Z,16.07
2022-09-20T12:40:26.592Z,16.43
2022-09-20T12:41:28.626Z,16.28
2022-09-20T12:42:32.381Z,16.35
2022-09-20T12:43:33.514Z,16.29
2022-09-20T12:44:40.293Z,16.19
2022-09-20T12:45:37.409Z,16.53
2022-09-20T12:46:50.245Z,16.30
2022-09-20T12:47:56.478Z,16.35
2022-09-20T12:49:43.610Z,16.26
2022-09-20T12:50:58.815Z,16.06
2022-09-20T12:52:14.233Z,16.10
2022-09-20T12:53:16.884Z,16.36
2022-09-20T12:54:14.106Z,16.00
2022-09-20T12:55:33.654Z,16.06
2022-09-20T12:56:34.226Z,16.08
2022-09-20T12:57:33.210Z,15.22
2022-09-20T12:58:53.670Z,16.17
2022-09-20T12:59:57.922Z,16.27
2022-09-20T13:00:59.328Z,16.27
2022-09-20T13:01:56.237Z,16.23
2022-09-20T13:02:52.937Z,16.31
2022-09-20T13:03:50.889Z,15.68
2022-09-20T13:04:55.595Z,16.18
2022-09-20T13:06:08.764Z,16.34
2022-09-20T13:07:40.078Z,16.30
2022-09-20T13:08:54.034Z,15.99
2022-09-20T13:09:51.098Z,16.21
2022-09-20T13:11:07.650Z,16.32
2022-09-20T13:12:05.465Z,15.43
2022-09-20T13:13:32.593Z,15.21
2022-09-20T13:14:32.644Z,16.16
2022-09-20T13:15:29.684Z,15.99
2022-09-20T13:16:51.298Z,16.11
2022-09-20T13:17:53.683Z,15.72
2022-09-20T13:19:16.510Z,16.05
2022-09-20T13:20:31.084Z,15.66
2022-09-20T13:21:28.486Z,16.04
2022-09-20T13:22:37.119Z,16.06
2022-09-20T13:23:48.623Z,16.06
2022-09-20T13:24:50.549Z,16.16
2022-09-20T13:25:49.934Z,16.27
2022-09-20T13:26:50.543Z,15.44
2022-09-20T13:27:56.345Z,16.30
2022-09-20T13:28:57.083Z,16.24
2022-09-20T13:29:53.814Z,16.06
2022-09-20T13:30:50.528Z,16.06
2022-09-20T13:31:47.543Z,16.37
2022-09-20T13:32:45.551Z,16.43
2022-09-20T13:33:42.295Z,16.06
2022-09-20T13:34:39.023Z,16.44
2022-09-20T13:35:35.761Z,16.41
2022-09-20T13:36:32.617Z,16.33
2022-09-20T13:37:30.302Z,16.16
2022-09-20T13:38:31.908Z,16.11
2022-09-20T13:39:36.204Z,16.15
2022-09-20T13:40:43.670Z,16.27
2022-09-20T13:41:40.542Z,15.86
2022-09-20T13:42:37.366Z,16.23
2022-09-20T13:43:41.593Z,16.23
2022-09-20T13:44:39.638Z,15.90
2022-09-20T13:45:36.979Z,15.81
2022-09-20T13:46:33.712Z,16.27
2022-09-20T13:47:32.311Z,16.14
2022-09-20T13:48:30.358Z,16.26
2022-09-20T13:49:32.275Z,16.33
2022-09-20T13:50:34.761Z,16.25
2022-09-20T13:51:34.764Z,15.64
2022-09-20T13:52:32.326Z,16.19
2022-09-20T13:53:41.476Z,15.63
2022-09-20T13:54:38.738Z,15.94
2022-09-20T13:55:40.682Z,16.06
2022-09-20T13:56:40.743Z,16.01
2022-09-20T13:57:41.292Z,15.33
2022-09-20T13:58:38.365Z,16.15
2022-09-20T13:59:45.416Z,16.42
2022-09-20T14:00:49.821Z,16.43
2022-09-20T14:01:55.430Z,16.33
2022-09-20T14:02:57.042Z,15.32
2022-09-20T14:03:54.607Z,16.02
2022-09-20T14:04:56.092Z,15.75
2022-09-20T14:06:13.538Z,16.30
2022-09-20T14:07:11.123Z,16.12
2022-09-20T14:08:27.937Z,15.50
2022-09-20T14:09:36.003Z,15.94
2022-09-20T14:10:41.037Z,16.09
2022-09-20T14:11:39.743Z,14.91
2022-09-20T14:12:38.716Z,15.82
2022-09-20T14:13:43.893Z,15.69
2022-09-20T14:14:41.972Z,15.47
2022-09-20T14:15:44.316Z,16.20
2022-09-20T14:16:49.015Z,16.13
2022-09-20T14:17:46.590Z,16.31
2022-09-20T14:18:47.094Z,16.21
2022-09-20T14:19:48.907Z,15.79
2022-09-20T14:20:46.454Z,16.10
2022-09-20T14:21:44.420Z,16.06
2022-09-20T14:22:43.910Z,16.00
2022-09-20T14:23:53.642Z,16.11
2022-09-20T14:25:17.431Z,16.10
2022-09-20T14:26:17.034Z,16.13
2022-09-20T14:27:19.965Z,15.86
2022-09-20T14:28:19.325Z,15.94
2022-09-20T14:29:34.288Z,16.08
2022-09-20T14:30:36.299Z,16.18
2022-09-20T14:31:36.576Z,16.29
2022-09-20T14:32:43.921Z,15.87
2022-09-20T14:33:45.727Z,14.71
2022-09-20T14:34:47.378Z,16.08
2022-09-20T14:35:50.298Z,15.91
2022-09-20T14:36:49.934Z,15.57
2022-09-20T14:38:11.462Z,16.03
2022-09-20T14:39:16.742Z,15.38
2022-09-20T14:40:24.390Z,15.70
2022-09-20T14:41:39.856Z,16.09
2022-09-20T14:42:47.048Z,16.09